createdAt,value
2023-03-27T00:00:49.497Z,17.9
2023-03-27T00:20:53.183Z,17.9
2023-03-27T00:40:46.421Z,17.8
2023-03-27T01:00:46.489Z,17.8
2023-03-27T01:20:46.168Z,17.8
2023-03-27T01:40:46.284Z,17.8
2023-03-27T02:01:00.628Z,17.7
2023-03-27T02:20:46.720Z,17.6
2023-03-27T02:40:48.011Z,17.6
2023-03-27T03:00:45.591Z,17.6
2023-03-27T03:20:46.878Z,17.6
2023-03-27T03:40:46.151Z,17.5
2023-03-27T04:01:13.501Z,17.4
2023-03-27T04:20:48.455Z,17.4
2023-03-27T04:40:46.694Z,17.4
2023-03-27T05:00:50.821Z,17.5
2023-03-27T05:20:46.607Z,17.6
2023-03-27T05:41:12.180Z,17.7
2023-03-27T06:01:11.026Z,17.7
2023-03-27T06:21:11.340Z,17.7
2023-03-27T06:41:17.058Z,17.7
2023-03-27T07:01:09.884Z,17.7
2023-03-27T07:21:12.048Z,17.7
2023-03-27T07:41:11.046Z,17.8
2023-03-27T08:01:18.361Z,17.7
2023-03-27T08:21:14.449Z,17.7
2023-03-27T08:41:11.282Z,17.6
2023-03-27T09:01:11.794Z,17.6
2023-03-27T09:21:14.114Z,17.6
2023-03-27T09:41:17.986Z,17.6
2023-03-27T10:01:13.585Z,17.6
2023-03-27T10:21:10.867Z,17.7
2023-03-27T10:41:13.007Z,17.8
2023-03-27T11:01:11.398Z,17.8
2023-03-27T11:21:11.680Z,17.8
2023-03-27T11:41:14.627Z,17.8
2023-03-27T12:01:17.988Z,17.8
2023-03-27T12:21:19.619Z,17.8
2023-03-27T12:41:11.233Z,17.8
2023-03-27T13:01:14.830Z,17.7
2023-03-27T13:21:11.664Z,17.7
2023-03-27T13:41:14.079Z,17.7
2023-03-27T14:01:14.565Z,17.8
2023-03-27T14:21:11.301Z,17.8
2023-03-27T14:41:17.194Z,17.9
2023-03-27T15:01:11.112Z,17.9
2023-03-27T15:21:17.585Z,18.1
2023-03-27T15:41:17.647Z,18.1
2023-03-27T16:01:31.203Z,18
2023-03-27T16:21:14.206Z,18
2023-03-27T16:41:11.615Z,18
2023-03-27T17:01:10.973Z,18
2023-03-27T17:21:18.914Z,17.9
2023-03-27T17:41:13.525Z,17.9
2023-03-27T18:00:45.865Z,18
2023-03-27T18:20:45.636Z,18.3
2023-03-27T18:40:46.123Z,18.4
2023-03-27T19:00:46.244Z,18.5
2023-03-27T19:20:46.873Z,18.7
2023-03-27T19:40:47.028Z,18.6
2023-03-27T20:00:46.399Z,18.7
2023-03-27T20:20:52.458Z,18.8
2023-03-27T20:41:00.958Z,18.8
2023-03-27T21:00:46.226Z,18.7
2023-03-27T21:20:46.527Z,18.6
2023-03-27T21:40:46.985Z,18.5
2023-03-27T22:00:50.416Z,18.5
2023-03-27T22:20:50.096Z,18.4
2023-03-27T22:40:50.630Z,18.3
2023-03-27T23:00:45.326Z,18.2
2023-03-27T23:20:55.300Z,18.1
2023-03-27T23:40:46.572Z,18.1
